createdAt,value
2023-01-23T00:03:10.189Z,102654.91
2023-01-23T00:08:17.965Z,102657.25
2023-01-23T00:13:23.553Z,102660.28
2023-01-23T09:03:47.521Z,102887.25
2023-01-23T09:08:52.741Z,102887.88
2023-01-23T09:13:58.076Z,102892.63
2023-01-23T09:19:05.745Z,102900.03
2023-01-23T09:24:11.372Z,102897.84
2023-01-23T09:29:17.593Z,102897.06
2023-01-23T09:34:25.249Z,102896.63
2023-01-23T09:39:30.525Z,102910.63
2023-01-23T09:44:39.590Z,102907.47
2023-01-23T09:49:50.078Z,102907.19
2023-01-23T09:54:58.495Z,102925.81
2023-01-23T10:00:08.107Z,102927.66
2023-01-23T10:05:19.312Z,102925.81
2023-01-23T10:10:56.331Z,102919.91
2023-01-23T10:16:13.678Z,102925.69
2023-01-23T10:21:28.262Z,102926.91
2023-01-23T10:26:35.868Z,102919.75
2023-01-23T10:31:42.562Z,102913.47
2023-01-23T10:37:02.040Z,102920.13
2023-01-23T10:42:12.571Z,102928.16
2023-01-23T10:47:22.845Z,102924.38
2023-01-23T10:52:37.706Z,102907.34
2023-01-23T10:57:49.243Z,102915.88
2023-01-23T11:02:54.779Z,102919.25
2023-01-23T11:08:02.919Z,102908.41
2023-01-23T11:13:08.212Z,102913.28
2023-01-23T11:18:34.520Z,102899.78
2023-01-23T11:23:42.258Z,102896.38
2023-01-23T11:28:51.492Z,102888.84
2023-01-23T11:34:01.565Z,102891.88
2023-01-23T11:39:17.019Z,102875.16
2023-01-23T11:44:24.435Z,102876.34
2023-01-23T11:49:43.461Z,102864.00
2023-01-23T11:55:05.161Z,102862.00
2023-01-23T12:00:26.176Z,102852.63
2023-01-23T12:06:17.621Z,102851.44
2023-01-23T12:11:27.231Z,102853.16
2023-01-23T12:16:45.281Z,102843.50
2023-01-23T12:21:55.250Z,102858.25
2023-01-23T12:27:20.175Z,102862.97
2023-01-23T12:32:38.935Z,102863.03
2023-01-23T12:37:58.874Z,102863.50
2023-01-23T12:43:11.560Z,102863.34
2023-01-23T12:48:19.202Z,102863.78
2023-01-23T12:53:26.519Z,102848.84
2023-01-23T12:58:38.271Z,102856.22
2023-01-23T13:03:57.529Z,102864.59
2023-01-23T13:09:17.545Z,102865.91
2023-01-23T13:15:06.866Z,102869.38
2023-01-23T13:20:39.091Z,102874.28
2023-01-23T13:25:44.174Z,102880.56
2023-01-23T13:31:02.327Z,102880.63
2023-01-23T13:36:16.411Z,102872.78
2023-01-23T13:41:34.348Z,102877.97
2023-01-23T14:20:23.766Z,102886.03
2023-01-23T14:25:29.674Z,102885.34
2023-01-23T14:30:34.827Z,102887.72
2023-01-23T14:35:42.757Z,102884.84
2023-01-23T14:40:50.977Z,102893.81
2023-01-23T14:46:02.734Z,102900.25
2023-01-23T14:51:21.203Z,102896.09
2023-01-23T14:56:30.576Z,102896.78
2023-01-23T15:01:36.485Z,102896.38
2023-01-23T15:06:45.021Z,102901.41
2023-01-23T15:11:50.299Z,102904.34
2023-01-23T15:17:02.115Z,102907.16
2023-01-23T15:22:22.022Z,102913.50
2023-01-23T15:27:29.400Z,102925.81
2023-01-23T15:32:35.658Z,102917.66
2023-01-23T15:37:43.724Z,102907.28
2023-01-23T15:43:04.179Z,102910.50
2023-01-23T15:48:10.140Z,102909.28
2023-01-23T15:53:18.789Z,102905.47
2023-01-23T15:58:24.156Z,102912.13
2023-01-23T16:03:29.586Z,102923.06
2023-01-23T16:08:37.416Z,102920.31
2023-01-23T16:13:42.692Z,102917.56
2023-01-23T16:18:48.058Z,102919.97
2023-01-23T16:23:56.500Z,102908.00
2023-01-23T16:29:13.063Z,102904.75
2023-01-23T16:34:19.363Z,102911.66
2023-01-23T16:39:29.520Z,102904.88
2023-01-23T16:44:35.027Z,102901.28
2023-01-23T16:49:51.583Z,102889.19
2023-01-23T16:55:00.301Z,102888.19
2023-01-23T17:00:06.886Z,102892.09
2023-01-23T17:05:13.451Z,102899.03
2023-01-23T17:10:24.049Z,102900.81
2023-01-23T17:15:31.564Z,102896.44
2023-01-23T17:20:39.050Z,102910.72
2023-01-23T17:25:59.820Z,102919.50
2023-01-23T17:31:06.740Z,102921.50
2023-01-23T17:36:12.367Z,102919.09
2023-01-23T17:41:20.399Z,102925.94
2023-01-23T17:46:27.476Z,102931.19
2023-01-23T17:51:34.212Z,102918.56
2023-01-23T17:56:42.283Z,102922.66
2023-01-23T18:01:47.802Z,102918.97
2023-01-23T18:06:53.202Z,102914.47
2023-01-23T18:12:04.981Z,102909.06
2023-01-23T18:17:23.058Z,102910.91
2023-01-23T18:22:29.373Z,102910.78
2023-01-23T18:27:37.531Z,102906.69
2023-01-23T18:33:11.450Z,102906.09
2023-01-23T18:38:20.278Z,102906.56
2023-01-23T18:43:39.129Z,102910.03
2023-01-23T18:48:45.661Z,102905.03
2023-01-23T18:53:58.218Z,102906.38
2023-01-23T18:59:16.392Z,102898.06
2023-01-23T19:04:23.432Z,102908.16
2023-01-23T19:09:30.809Z,102904.53
2023-01-23T19:14:53.345Z,102901.53
2023-01-23T19:20:04.055Z,102904.06
2023-01-23T22:34:40.186Z,102969.91
2023-01-23T22:39:45.309Z,102973.66
2023-01-23T22:44:50.389Z,102962.13
2023-01-23T22:49:58.059Z,102955.63
2023-01-23T22:55:03.154Z,102960.66
2023-01-23T23:00:10.734Z,102963.72
2023-01-23T23:05:19.168Z,102957.31
2023-01-23T23:10:24.324Z,102950.41
2023-01-23T23:15:29.500Z,102960.22
2023-01-23T23:20:37.243Z,102960.69
2023-01-23T23:25:42.314Z,102962.28
2023-01-23T23:30:47.375Z,102952.09
2023-01-23T23:35:56.587Z,102960.69
